Time;durP1;ratioP1;P1;durP2;ratioP2;P2;SDS_P1;SDS_P2;PMS_P1;PMS_P2;Temp;Humidity;BMP_temperature;BMP_pressure;BME280_temperature;BME280_humidity;BME280_pressure;Samples;Min_cycle;Max_cycle;Signal;HPM_P1;HPM_P2
2023/07/01 00:01:06;;;;;;;;;;;20.10;46.90;;;;;;6307262;22;19914;-79
2023/07/01 00:03:32;;;;;;;;;;;20.10;46.90;;;;;;6307636;22;19910;-79
2023/07/01 00:05:58;;;;;;;;;;;20.10;46.90;;;;;;6307409;22;19914;-78
2023/07/01 00:08:24;;;;;;;;;;;20.00;46.90;;;;;;6307418;22;20222;-78
2023/07/01 00:10:49;;;;;;;;;;;19.90;46.90;;;;;;6307725;22;19922;-78
2023/07/01 00:13:15;;;;;;;;;;;19.90;46.90;;;;;;6307496;22;20348;-78
2023/07/01 00:15:40;;;;;;;;;;;19.90;46.90;;;;;;6307496;22;19914;-78
2023/07/01 00:18:05;;;;;;;;;;;19.90;47.00;;;;;;6307495;22;20305;-78
2023/07/01 00:20:32;;;;;;;;;;;19.80;47.00;;;;;;6307327;22;20317;-78
2023/07/01 00:22:57;;;;;;;;;;;19.80;47.10;;;;;;6307192;22;20279;-77
2023/07/01 00:25:23;;;;;;;;;;;19.80;47.10;;;;;;6307431;22;19911;-78
2023/07/01 00:27:49;;;;;;;;;;;19.80;47.10;;;;;;6307558;22;19986;-78
2023/07/01 00:30:14;;;;;;;;;;;19.80;47.20;;;;;;6307069;22;19969;-78
2023/07/01 00:32:40;;;;;;;;;;;19.80;47.10;;;;;;6279854;22;20278;-78
2023/07/01 00:35:05;;;;;;;;;;;19.70;46.90;;;;;;6306979;22;20398;-79
2023/07/01 00:37:31;;;;;;;;;;;19.70;47.10;;;;;;6279747;22;19907;-79
2023/07/01 00:39:56;;;;;;;;;;;19.70;47.20;;;;;;6307490;22;20005;-73
2023/07/01 00:42:22;;;;;;;;;;;19.70;47.20;;;;;;6280144;22;19907;-79
2023/07/01 00:44:47;;;;;;;;;;;19.60;47.30;;;;;;6279883;22;19911;-77
2023/07/01 00:47:12;;;;;;;;;;;19.70;47.30;;;;;;6307057;22;19914;-77
2023/07/01 00:49:38;;;;;;;;;;;19.70;47.40;;;;;;6307467;22;19911;-77
2023/07/01 00:52:05;;;;;;;;;;;19.80;47.30;;;;;;6306984;22;19938;-77
2023/07/01 00:54:30;;;;;;;;;;;19.80;47.40;;;;;;6279731;22;19942;-77
2023/07/01 00:56:56;;;;;;;;;;;19.80;47.20;;;;;;6307249;22;20394;-77
2023/07/01 00:59:21;;;;;;;;;;;19.90;47.10;;;;;;6307396;22;19903;-77
2023/07/01 01:01:48;;;;;;;;;;;20.00;47.00;;;;;;6307353;22;19910;-77
2023/07/01 01:04:29;;;;;;;;;;;20.10;47.00;;;;;;6307313;22;19903;-76
2023/07/01 01:06:58;;;;;;;;;;;20.20;46.90;;;;;;6307214;22;19918;-75
2023/07/01 01:09:30;;;;;;;;;;;20.20;46.80;;;;;;6279442;22;20321;-77
2023/07/01 01:11:58;;;;;;;;;;;20.30;46.70;;;;;;6307235;22;19911;-77
2023/07/01 01:14:24;;;;;;;;;;;20.30;46.70;;;;;;6307218;22;19907;-77
2023/07/01 01:16:49;;;;;;;;;;;20.30;46.60;;;;;;6306713;22;19915;-77
2023/07/01 01:19:28;;;;;;;;;;;20.40;46.50;;;;;;6307060;22;20304;-77
2023/07/01 01:22:14;;;;;;;;;;;20.50;46.40;;;;;;6306843;22;20332;-77
2023/07/01 01:24:41;;;;;;;;;;;20.50;46.40;;;;;;6228720;22;19907;-75
2023/07/01 01:27:08;;;;;;;;;;;20.50;46.30;;;;;;6306503;22;19957;-75
2023/07/01 01:29:34;;;;;;;;;;;20.60;46.20;;;;;;6306886;22;19911;-75
2023/07/01 01:31:59;;;;;;;;;;;20.60;46.10;;;;;;6306637;22;20225;-75
2023/07/01 01:34:25;;;;;;;;;;;20.70;46.00;;;;;;6306921;22;20283;-75
2023/07/01 01:36:56;;;;;;;;;;;20.70;45.90;;;;;;6306369;22;19911;-75
2023/07/01 01:39:24;;;;;;;;;;;20.70;45.80;;;;;;6306716;22;20343;-75
2023/07/01 01:41:56;;;;;;;;;;;20.80;45.70;;;;;;6279057;22;19915;-75
2023/07/01 01:44:27;;;;;;;;;;;20.80;45.60;;;;;;6306769;22;19907;-75
2023/07/01 01:46:54;;;;;;;;;;;20.80;45.50;;;;;;6306442;22;19973;-76
2023/07/01 01:49:20;;;;;;;;;;;20.90;45.40;;;;;;6306088;22;19907;-76
2023/07/01 01:51:46;;;;;;;;;;;20.90;45.40;;;;;;6306225;22;19911;-75
2023/07/01 01:54:11;;;;;;;;;;;21.00;45.30;;;;;;6306516;22;19952;-75
2023/07/01 01:56:37;;;;;;;;;;;21.00;45.20;;;;;;6305985;22;19915;-75
2023/07/01 01:59:02;;;;;;;;;;;21.00;45.20;;;;;;6306954;22;19982;-75
2023/07/01 02:01:28;;;;;;;;;;;21.00;45.10;;;;;;6306195;22;19960;-75
2023/07/01 02:03:53;;;;;;;;;;;21.00;45.10;;;;;;6306423;22;19907;-75
2023/07/01 02:06:19;;;;;;;;;;;21.00;44.90;;;;;;6305937;22;19933;-74
2023/07/01 02:08:44;;;;;;;;;;;21.10;44.90;;;;;;6306452;22;20233;-75
2023/07/01 02:11:10;;;;;;;;;;;21.00;44.80;;;;;;6279364;22;19919;-75
2023/07/01 02:13:35;;;;;;;;;;;21.10;44.80;;;;;;6306961;22;19903;-75
2023/07/01 02:16:01;;;;;;;;;;;21.10;44.70;;;;;;6306145;22;19911;-75
2023/07/01 02:18:26;;;;;;;;;;;21.10;44.70;;;;;;6279273;22;19903;-75
2023/07/01 02:20:52;;;;;;;;;;;21.10;44.60;;;;;;6306556;22;19922;-75
2023/07/01 02:23:17;;;;;;;;;;;21.10;44.50;;;;;;6306866;22;20256;-74
2023/07/01 02:25:43;;;;;;;;;;;21.20;44.50;;;;;;6306853;22;19911;-74
2023/07/01 02:28:08;;;;;;;;;;;21.20;44.40;;;;;;6306213;22;19910;-75
2023/07/01 02:30:35;;;;;;;;;;;21.20;44.40;;;;;;6278729;22;19945;-75
2023/07/01 02:33:01;;;;;;;;;;;21.20;44.40;;;;;;6306015;22;19956;-75
2023/07/01 02:35:26;;;;;;;;;;;21.10;44.30;;;;;;6305870;22;19915;-75
2023/07/01 02:37:51;;;;;;;;;;;21.10;44.30;;;;;;6305939;22;19910;-75
2023/07/01 02:40:17;;;;;;;;;;;21.10;44.30;;;;;;6305838;22;19915;-75
2023/07/01 02:42:42;;;;;;;;;;;21.10;44.30;;;;;;6306178;22;19929;-75
2023/07/01 02:45:08;;;;;;;;;;;21.10;44.30;;;;;;6305706;22;19911;-75
2023/07/01 02:47:33;;;;;;;;;;;21.20;44.20;;;;;;6305645;22;19914;-75
2023/07/01 02:49:59;;;;;;;;;;;21.20;44.30;;;;;;6305642;22;19918;-75
2023/07/01 02:52:24;;;;;;;;;;;21.10;44.20;;;;;;6305537;22;19949;-74
2023/07/01 02:54:49;;;;;;;;;;;21.20;44.20;;;;;;6306041;22;19907;-75
2023/07/01 02:57:15;;;;;;;;;;;21.20;44.20;;;;;;6305966;22;19989;-74
2023/07/01 02:59:41;;;;;;;;;;;21.10;44.10;;;;;;6306178;22;19939;-75
2023/07/01 03:02:06;;;;;;;;;;;21.10;44.10;;;;;;6305634;22;19968;-75
2023/07/01 03:04:32;;;;;;;;;;;21.20;44.00;;;;;;6306057;22;19907;-74
2023/07/01 03:06:58;;;;;;;;;;;21.10;44.00;;;;;;6305798;22;19907;-76
2023/07/01 03:09:23;;;;;;;;;;;21.20;43.90;;;;;;6305950;22;19906;-76
2023/07/01 03:11:49;;;;;;;;;;;21.20;44.00;;;;;;6305920;22;20321;-76
2023/07/01 03:14:14;;;;;;;;;;;21.20;44.00;;;;;;6306081;22;19976;-76
2023/07/01 03:16:42;;;;;;;;;;;21.20;43.90;;;;;;6305668;22;19911;-77
2023/07/01 03:19:08;;;;;;;;;;;21.20;43.90;;;;;;6305895;22;19907;-77
2023/07/01 03:21:34;;;;;;;;;;;21.30;43.90;;;;;;6305437;22;19918;-77
2023/07/01 03:23:59;;;;;;;;;;;21.30;43.80;;;;;;6305700;22;19990;-76
2023/07/01 03:26:25;;;;;;;;;;;21.30;43.80;;;;;;6305772;22;19907;-77
2023/07/01 03:28:52;;;;;;;;;;;21.30;43.80;;;;;;6306250;22;19907;-76
2023/07/01 03:31:17;;;;;;;;;;;21.40;43.70;;;;;;6305417;22;20277;-77
2023/07/01 03:33:42;;;;;;;;;;;21.40;43.70;;;;;;6306039;22;20004;-74
2023/07/01 03:36:09;;;;;;;;;;;21.40;43.70;;;;;;6305477;22;19911;-74
2023/07/01 03:38:34;;;;;;;;;;;21.40;43.60;;;;;;6305572;22;19990;-76
2023/07/01 03:41:00;;;;;;;;;;;21.50;43.60;;;;;;6305438;22;19937;-77
2023/07/01 03:43:27;;;;;;;;;;;21.50;43.50;;;;;;6305919;22;19945;-76
2023/07/01 03:45:53;;;;;;;;;;;21.60;43.40;;;;;;6305610;22;19968;-77
2023/07/01 03:48:18;;;;;;;;;;;21.60;43.40;;;;;;6305314;22;19910;-76
2023/07/01 03:50:44;;;;;;;;;;;21.70;43.30;;;;;;6305509;22;19915;-78
2023/07/01 03:53:09;;;;;;;;;;;21.70;43.20;;;;;;6305485;22;19990;-76
2023/07/01 03:55:35;;;;;;;;;;;21.70;43.10;;;;;;6305285;22;19919;-76
2023/07/01 03:58:00;;;;;;;;;;;21.80;43.00;;;;;;6305534;22;19911;-77
2023/07/01 04:00:26;;;;;;;;;;;21.80;43.00;;;;;;6305340;22;19907;-77
2023/07/01 04:02:51;;;;;;;;;;;21.80;42.90;;;;;;6305388;22;19998;-76
2023/07/01 04:05:18;;;;;;;;;;;21.90;42.70;;;;;;6305307;22;19911;-77
2023/07/01 04:07:44;;;;;;;;;;;21.90;42.70;;;;;;6305407;22;19981;-76
2023/07/01 04:10:10;;;;;;;;;;;22.00;42.70;;;;;;6305338;22;19984;-77
2023/07/01 04:12:37;;;;;;;;;;;22.10;42.50;;;;;;6305175;22;19903;-77
2023/07/01 04:15:09;;;;;;;;;;;22.10;42.50;;;;;;6278161;22;19957;-77
2023/07/01 04:17:42;;;;;;;;;;;22.10;42.50;;;;;;6305554;22;19910;-77
2023/07/01 04:20:09;;;;;;;;;;;22.20;42.40;;;;;;6307324;22;19911;-76
2023/07/01 04:22:35;;;;;;;;;;;22.30;42.20;;;;;;6307273;22;20250;-77
2023/07/01 04:25:00;;;;;;;;;;;22.50;42.20;;;;;;6307350;22;19906;-77
2023/07/01 04:27:26;;;;;;;;;;;22.60;41.90;;;;;;6307046;22;19903;-77
2023/07/01 04:29:51;;;;;;;;;;;22.70;41.70;;;;;;6307750;22;19949;-77
2023/07/01 04:32:16;;;;;;;;;;;22.80;41.40;;;;;;6307128;22;19933;-77
2023/07/01 04:34:42;;;;;;;;;;;22.80;41.20;;;;;;6307006;22;19907;-77
2023/07/01 04:37:08;;;;;;;;;;;22.80;41.20;;;;;;6307360;22;20287;-77
2023/07/01 04:39:33;;;;;;;;;;;22.90;41.10;;;;;;6307675;22;19914;-77
2023/07/01 04:41:58;;;;;;;;;;;23.00;41.10;;;;;;6306952;22;19910;-78
2023/07/01 04:44:24;;;;;;;;;;;23.00;40.90;;;;;;6307386;22;19907;-77
2023/07/01 04:46:50;;;;;;;;;;;23.10;40.70;;;;;;6306912;22;19938;-77
2023/07/01 04:49:15;;;;;;;;;;;23.20;40.50;;;;;;6307320;22;19907;-75
2023/07/01 04:51:41;;;;;;;;;;;23.20;40.40;;;;;;6279819;22;20245;-75
2023/07/01 04:54:06;;;;;;;;;;;23.30;40.50;;;;;;6307502;22;19949;-76
2023/07/01 04:56:32;;;;;;;;;;;23.40;40.30;;;;;;6279237;22;19919;-76
2023/07/01 04:58:57;;;;;;;;;;;23.40;40.00;;;;;;6306765;22;19911;-76
2023/07/01 05:01:23;;;;;;;;;;;23.40;39.90;;;;;;6306754;22;19958;-75
2023/07/01 05:03:48;;;;;;;;;;;23.50;39.70;;;;;;6307153;22;19907;-75
2023/07/01 05:06:14;;;;;;;;;;;23.60;39.60;;;;;;6307304;22;19907;-76
2023/07/01 05:08:39;;;;;;;;;;;23.70;39.30;;;;;;6307009;22;19960;-76
2023/07/01 05:11:05;;;;;;;;;;;23.80;39.40;;;;;;6306602;22;19914;-76
2023/07/01 05:13:30;;;;;;;;;;;23.90;39.20;;;;;;6306988;22;19907;-76
2023/07/01 05:15:55;;;;;;;;;;;24.00;38.90;;;;;;6306823;22;19907;-75
2023/07/01 05:18:21;;;;;;;;;;;24.10;38.80;;;;;;6306772;22;19969;-75
2023/07/01 05:20:46;;;;;;;;;;;24.20;38.80;;;;;;6306840;22;19930;-75
2023/07/01 05:23:12;;;;;;;;;;;24.20;38.80;;;;;;6306687;22;20317;-76
2023/07/01 05:25:38;;;;;;;;;;;24.30;38.30;;;;;;6306607;22;19911;-75
2023/07/01 05:28:03;;;;;;;;;;;24.30;38.40;;;;;;6306627;22;19910;-75
2023/07/01 05:30:28;;;;;;;;;;;24.40;38.60;;;;;;6305803;22;19914;-75
2023/07/01 05:32:54;;;;;;;;;;;24.40;38.40;;;;;;6306424;22;20266;-75
2023/07/01 05:35:19;;;;;;;;;;;24.50;38.30;;;;;;6306673;22;19915;-74
2023/07/01 05:37:45;;;;;;;;;;;24.50;38.30;;;;;;6306724;22;19990;-76
2023/07/01 05:40:12;;;;;;;;;;;24.60;38.40;;;;;;6306521;22;19922;-75
2023/07/01 05:42:37;;;;;;;;;;;24.70;38.30;;;;;;6306267;22;20332;-75
2023/07/01 05:45:03;;;;;;;;;;;24.70;38.20;;;;;;6306470;22;19918;-75
2023/07/01 05:47:29;;;;;;;;;;;24.80;37.80;;;;;;6306240;22;19903;-76
2023/07/01 05:49:54;;;;;;;;;;;24.80;37.70;;;;;;6306850;22;19907;-75
2023/07/01 05:52:20;;;;;;;;;;;24.80;37.60;;;;;;6306537;22;20328;-74
2023/07/01 05:54:46;;;;;;;;;;;24.80;37.60;;;;;;6306542;22;19956;-75
2023/07/01 05:57:11;;;;;;;;;;;24.90;37.70;;;;;;6306419;22;19911;-75
2023/07/01 05:59:37;;;;;;;;;;;25.00;37.60;;;;;;6306641;22;20210;-75
2023/07/01 06:02:02;;;;;;;;;;;25.10;37.60;;;;;;6278900;22;19913;-75
2023/07/01 06:04:28;;;;;;;;;;;25.20;37.30;;;;;;6306647;22;19989;-75
2023/07/01 06:06:55;;;;;;;;;;;25.20;37.40;;;;;;6305672;22;22272;-75
2023/07/01 06:09:20;;;;;;;;;;;25.20;37.40;;;;;;6306454;22;19980;-76
2023/07/01 06:11:46;;;;;;;;;;;25.30;37.30;;;;;;6306076;22;19914;-75
2023/07/01 06:14:11;;;;;;;;;;;25.30;37.10;;;;;;6306571;22;19906;-76
2023/07/01 06:16:37;;;;;;;;;;;25.40;37.30;;;;;;6305858;22;19934;-75
2023/07/01 06:19:02;;;;;;;;;;;25.60;36.80;;;;;;6306553;22;19903;-75
2023/07/01 06:21:28;;;;;;;;;;;25.70;36.70;;;;;;6306492;22;20291;-75
2023/07/01 06:23:55;;;;;;;;;;;25.80;36.70;;;;;;6278972;22;19985;-75
2023/07/01 06:26:20;;;;;;;;;;;26.00;36.70;;;;;;6278840;22;19964;-75
2023/07/01 06:28:45;;;;;;;;;;;26.20;36.50;;;;;;6306121;22;19903;-75
2023/07/01 06:31:11;;;;;;;;;;;26.40;36.50;;;;;;6278733;22;20355;-75
2023/07/01 06:33:38;;;;;;;;;;;26.60;35.90;;;;;;6306240;22;20328;-76
2023/07/01 06:36:04;;;;;;;;;;;26.70;35.60;;;;;;6278543;22;19947;-75
2023/07/01 06:38:29;;;;;;;;;;;26.80;35.30;;;;;;6306402;22;20283;-75
2023/07/01 06:40:55;;;;;;;;;;;26.80;35.00;;;;;;6305574;22;19911;-76
2023/07/01 06:43:20;;;;;;;;;;;26.70;35.30;;;;;;6306055;22;19922;-75
2023/07/01 06:45:45;;;;;;;;;;;26.80;35.50;;;;;;6306031;22;20298;-75
2023/07/01 06:48:11;;;;;;;;;;;26.90;35.50;;;;;;6305988;22;19903;-76
2023/07/01 06:50:36;;;;;;;;;;;27.00;35.10;;;;;;6305985;22;19922;-76
2023/07/01 06:53:03;;;;;;;;;;;27.00;35.20;;;;;;6278533;22;19972;-75
2023/07/01 06:55:28;;;;;;;;;;;27.00;35.30;;;;;;6307575;22;20221;-75
2023/07/01 06:57:54;;;;;;;;;;;27.00;35.20;;;;;;6306366;22;19989;-75
2023/07/01 07:00:19;;;;;;;;;;;27.10;35.20;;;;;;6306334;22;19910;-75
2023/07/01 07:02:45;;;;;;;;;;;27.20;35.10;;;;;;6306189;22;20373;-75
2023/07/01 07:05:10;;;;;;;;;;;27.30;34.80;;;;;;6305712;22;19907;-76
2023/07/01 07:07:36;;;;;;;;;;;27.50;34.70;;;;;;6305879;22;19953;-75
2023/07/01 07:10:03;;;;;;;;;;;27.60;34.80;;;;;;6305666;22;19911;-75
2023/07/01 07:12:28;;;;;;;;;;;27.90;34.40;;;;;;6305700;22;20279;-75
2023/07/01 07:14:54;;;;;;;;;;;28.20;34.10;;;;;;6278645;22;20277;-75
2023/07/01 07:17:19;;;;;;;;;;;28.30;33.80;;;;;;6305345;22;20340;-75
2023/07/01 07:19:45;;;;;;;;;;;28.40;33.70;;;;;;6305123;22;19907;-75
2023/07/01 07:22:10;;;;;;;;;;;28.50;33.60;;;;;;6305417;22;20401;-73
2023/07/01 07:24:36;;;;;;;;;;;28.70;33.60;;;;;;6305990;22;19926;-72
2023/07/01 07:27:01;;;;;;;;;;;28.80;33.70;;;;;;6305855;22;19986;-73
2023/07/01 07:29:30;;;;;;;;;;;29.00;33.20;;;;;;6305941;22;19907;-75
2023/07/01 07:31:57;;;;;;;;;;;29.10;33.00;;;;;;6305425;22;19911;-74
2023/07/01 07:34:25;;;;;;;;;;;29.10;32.70;;;;;;6305526;22;19907;-75
2023/07/01 07:36:50;;;;;;;;;;;29.00;32.90;;;;;;6305611;22;19911;-74
2023/07/01 07:39:16;;;;;;;;;;;28.90;32.90;;;;;;6305944;22;19964;-74
2023/07/01 07:41:42;;;;;;;;;;;28.80;33.00;;;;;;6278501;22;19914;-74
2023/07/01 07:44:07;;;;;;;;;;;28.80;33.10;;;;;;6306172;22;19918;-73
2023/07/01 07:46:33;;;;;;;;;;;28.70;33.30;;;;;;6306227;22;19911;-75
2023/07/01 07:48:59;;;;;;;;;;;28.60;33.40;;;;;;6306169;22;19910;-74
2023/07/01 07:51:24;;;;;;;;;;;28.60;33.80;;;;;;6305611;22;19911;-75
2023/07/01 07:53:50;;;;;;;;;;;28.70;33.40;;;;;;6306833;22;19938;-74
2023/07/01 07:56:16;;;;;;;;;;;28.50;33.40;;;;;;6307346;22;20340;-74
2023/07/01 07:58:41;;;;;;;;;;;28.50;33.70;;;;;;6307638;22;20245;-74
2023/07/01 08:01:06;;;;;;;;;;;28.60;33.90;;;;;;6307600;22;19907;-74
2023/07/01 08:03:32;;;;;;;;;;;28.70;33.60;;;;;;6307379;22;19983;-74
2023/07/01 08:05:57;;;;;;;;;;;28.70;33.50;;;;;;6306470;22;20020;-76
2023/07/01 08:08:23;;;;;;;;;;;28.80;33.50;;;;;;6304959;22;20198;-74
2023/07/01 08:10:48;;;;;;;;;;;28.60;33.50;;;;;;6307138;22;19911;-74
2023/07/01 08:13:14;;;;;;;;;;;28.60;33.60;;;;;;6307530;22;19938;-74
2023/07/01 08:15:41;;;;;;;;;;;28.50;33.60;;;;;;6280366;22;19918;-75
2023/07/01 08:18:07;;;;;;;;;;;28.50;33.80;;;;;;6307714;22;19914;-74
2023/07/01 08:20:32;;;;;;;;;;;28.50;33.80;;;;;;6307020;22;20241;-74
2023/07/01 08:22:57;;;;;;;;;;;28.50;33.90;;;;;;6307814;22;19914;-74
2023/07/01 08:25:23;;;;;;;;;;;28.60;34.00;;;;;;6307422;22;19913;-74
2023/07/01 08:27:48;;;;;;;;;;;28.80;33.90;;;;;;6307140;22;19930;-74
2023/07/01 08:30:14;;;;;;;;;;;28.90;33.80;;;;;;6307410;22;19911;-74
2023/07/01 08:32:40;;;;;;;;;;;29.20;33.70;;;;;;6308031;22;19903;-75
2023/07/01 08:35:06;;;;;;;;;;;29.30;33.40;;;;;;6307472;22;19911;-75
2023/07/01 08:37:31;;;;;;;;;;;29.30;33.20;;;;;;6307757;22;19903;-75
2023/07/01 08:39:57;;;;;;;;;;;29.20;33.30;;;;;;6307652;22;19989;-76
2023/07/01 08:42:23;;;;;;;;;;;29.20;33.20;;;;;;6307582;22;19903;-75
2023/07/01 08:44:50;;;;;;;;;;;28.90;33.40;;;;;;6307852;22;19930;-74
2023/07/01 08:47:17;;;;;;;;;;;28.80;33.60;;;;;;6307052;22;19907;-74
2023/07/01 08:49:45;;;;;;;;;;;28.50;34.20;;;;;;6308070;22;19951;-74
2023/07/01 08:52:13;;;;;;;;;;;28.20;34.70;;;;;;6307733;22;19910;-75
2023/07/01 08:54:39;;;;;;;;;;;27.90;35.60;;;;;;6280042;22;20291;-75
2023/07/01 08:57:05;;;;;;;;;;;27.60;36.70;;;;;;6307047;22;20338;-76
2023/07/01 08:59:31;;;;;;;;;;;27.20;37.90;;;;;;6307641;22;19907;-77
2023/07/01 09:01:58;;;;;;;;;;;26.90;39.60;;;;;;6306841;22;19911;-76
2023/07/01 09:04:23;;;;;;;;;;;26.60;41.10;;;;;;6307308;22;20309;-77
2023/07/01 09:06:49;;;;;;;;;;;26.20;42.90;;;;;;6307134;22;19911;-76
2023/07/01 09:09:15;;;;;;;;;;;25.70;43.90;;;;;;6307715;22;20229;-75
2023/07/01 09:11:40;;;;;;;;;;;25.40;45.30;;;;;;6305194;22;19946;-75
2023/07/01 09:14:06;;;;;;;;;;;25.20;45.70;;;;;;6307553;22;19984;-76
2023/07/01 09:16:32;;;;;;;;;;;25.10;45.60;;;;;;6280098;22;20307;-75
2023/07/01 09:19:10;;;;;;;;;;;25.10;45.80;;;;;;6303556;22;20229;-75
2023/07/01 09:21:37;;;;;;;;;;;25.20;45.60;;;;;;6306863;22;19914;-75
2023/07/01 09:24:05;;;;;;;;;;;25.20;45.50;;;;;;6306716;22;19903;-75
2023/07/01 09:26:30;;;;;;;;;;;25.30;45.40;;;;;;6306739;22;19922;-76
2023/07/01 09:28:56;;;;;;;;;;;25.30;45.30;;;;;;6307022;22;19903;-75
2023/07/01 09:31:22;;;;;;;;;;;25.50;45.10;;;;;;6306612;22;19997;-75
2023/07/01 09:33:58;;;;;;;;;;;25.60;44.70;;;;;;6306888;22;20719;-75
2023/07/01 09:36:25;;;;;;;;;;;25.60;44.80;;;;;;6307015;22;19930;-75
2023/07/01 09:38:51;;;;;;;;;;;25.80;44.80;;;;;;6306837;22;19914;-75
2023/07/01 09:41:24;;;;;;;;;;;26.10;44.60;;;;;;6307317;22;19910;-76
2023/07/01 09:43:51;;;;;;;;;;;26.30;43.80;;;;;;6307206;22;19906;-75
2023/07/01 09:46:16;;;;;;;;;;;26.50;43.50;;;;;;6307176;22;19914;-75
2023/07/01 09:48:52;;;;;;;;;;;26.70;43.20;;;;;;6306751;22;19953;-69
2023/07/01 09:51:18;;;;;;;;;;;26.80;42.10;;;;;;6306827;22;19921;-69
2023/07/01 09:53:43;;;;;;;;;;;27.00;41.90;;;;;;6307167;22;19981;-69
2023/07/01 09:56:13;;;;;;;;;;;27.10;41.40;;;;;;6306361;22;19915;-69
2023/07/01 09:58:38;;;;;;;;;;;27.20;41.10;;;;;;6306433;22;19956;-69
2023/07/01 10:01:03;;;;;;;;;;;27.30;40.10;;;;;;6306415;22;19914;-69
2023/07/01 10:03:30;;;;;;;;;;;27.20;40.10;;;;;;6306725;22;19907;-69
2023/07/01 10:05:55;;;;;;;;;;;27.30;40.60;;;;;;6306359;22;19985;-69
2023/07/01 10:08:21;;;;;;;;;;;27.30;40.80;;;;;;6306693;22;19946;-69
2023/07/01 10:11:05;;;;;;;;;;;27.30;40.60;;;;;;6306354;22;19918;-69
2023/07/01 10:13:32;;;;;;;;;;;27.40;40.20;;;;;;6306578;22;19911;-69
2023/07/01 10:16:01;;;;;;;;;;;27.40;39.70;;;;;;6306217;22;19910;-69
2023/07/01 10:18:28;;;;;;;;;;;27.40;39.90;;;;;;6306709;22;19911;-69
2023/07/01 10:21:14;;;;;;;;;;;27.50;39.70;;;;;;6306839;22;20348;-69
2023/07/01 10:23:43;;;;;;;;;;;27.40;40.30;;;;;;6306011;22;19911;-69
2023/07/01 10:26:27;;;;;;;;;;;27.40;40.80;;;;;;6306313;22;19914;-69
2023/07/01 10:28:52;;;;;;;;;;;27.50;40.60;;;;;;6306799;22;19907;-69
2023/07/01 10:31:18;;;;;;;;;;;27.50;40.60;;;;;;6306233;22;19918;-69
2023/07/01 10:33:43;;;;;;;;;;;27.60;40.40;;;;;;6306548;22;19907;-69
2023/07/01 10:36:09;;;;;;;;;;;27.80;40.30;;;;;;6306187;22;20005;-69
2023/07/01 10:38:36;;;;;;;;;;;27.80;40.10;;;;;;6306407;22;19911;-69
2023/07/01 10:41:01;;;;;;;;;;;27.70;39.90;;;;;;6306310;22;19907;-69
2023/07/01 10:43:30;;;;;;;;;;;27.70;39.90;;;;;;6306729;22;19907;-69
2023/07/01 10:46:14;;;;;;;;;;;27.70;39.90;;;;;;6306395;22;19955;-69
2023/07/01 10:49:02;;;;;;;;;;;27.80;40.20;;;;;;6306260;22;20317;-69
2023/07/01 10:51:30;;;;;;;;;;;28.00;40.00;;;;;;6305997;22;19946;-69
2023/07/01 10:54:02;;;;;;;;;;;28.10;39.60;;;;;;6306523;22;19925;-69
2023/07/01 10:56:29;;;;;;;;;;;28.10;39.50;;;;;;6306224;22;20297;-69
2023/07/01 10:59:31;;;;;;;;;;;28.10;39.70;;;;;;6305873;22;19907;-69
2023/07/01 11:01:59;;;;;;;;;;;28.20;39.80;;;;;;6151610;23;19908;-69
2023/07/01 11:04:25;;;;;;;;;;;28.30;39.60;;;;;;6276795;22;19911;-69
2023/07/01 11:06:51;;;;;;;;;;;28.30;39.80;;;;;;6305702;22;19981;-68
2023/07/01 11:09:32;;;;;;;;;;;28.30;39.40;;;;;;6306199;22;19907;-68
2023/07/01 11:12:02;;;;;;;;;;;28.30;39.30;;;;;;6305593;22;19939;-68
2023/07/01 11:14:31;;;;;;;;;;;28.10;39.70;;;;;;6306255;22;19922;-68
2023/07/01 11:17:06;;;;;;;;;;;28.10;40.00;;;;;;6305722;22;20298;-68
2023/07/01 11:19:32;;;;;;;;;;;28.00;40.30;;;;;;6306476;22;19907;-68
2023/07/01 11:21:57;;;;;;;;;;;28.00;40.70;;;;;;6305599;22;20381;-68
2023/07/01 11:24:26;;;;;;;;;;;28.00;40.90;;;;;;6278134;22;19929;-68
2023/07/01 11:26:58;;;;;;;;;;;28.00;40.80;;;;;;6305473;22;19907;-68
2023/07/01 11:29:24;;;;;;;;;;;28.10;40.80;;;;;;6306181;22;19982;-67
2023/07/01 11:31:56;;;;;;;;;;;28.00;40.90;;;;;;6305779;22;20329;-68
2023/07/01 11:34:22;;;;;;;;;;;28.00;41.00;;;;;;6306077;22;20240;-69
2023/07/01 11:36:48;;;;;;;;;;;28.00;41.50;;;;;;6305746;22;19982;-69
2023/07/01 11:39:14;;;;;;;;;;;27.90;41.80;;;;;;6305928;22;20284;-69
2023/07/01 11:41:41;;;;;;;;;;;28.00;42.00;;;;;;6306022;22;20061;-69
2023/07/01 11:44:10;;;;;;;;;;;28.20;42.20;;;;;;6306226;22;19907;-69
2023/07/01 11:46:37;;;;;;;;;;;28.30;42.00;;;;;;6305859;22;20370;-69
2023/07/01 11:49:21;;;;;;;;;;;28.40;41.80;;;;;;6305871;22;19977;-69
2023/07/01 11:51:50;;;;;;;;;;;28.40;42.00;;;;;;6305789;22;19961;-69
2023/07/01 11:54:16;;;;;;;;;;;28.20;42.10;;;;;;6306128;22;19937;-69
2023/07/01 11:56:45;;;;;;;;;;;28.00;42.80;;;;;;6305962;22;19915;-68
2023/07/01 11:59:10;;;;;;;;;;;27.80;43.20;;;;;;6305837;22;19917;-69
2023/07/01 12:01:37;;;;;;;;;;;27.80;44.00;;;;;;6305706;22;20386;-69
2023/07/01 12:04:13;;;;;;;;;;;27.70;45.00;;;;;;6305994;22;19907;-69
2023/07/01 12:06:38;;;;;;;;;;;27.40;46.00;;;;;;6305440;22;19931;-68
2023/07/01 12:09:08;;;;;;;;;;;27.10;46.60;;;;;;6306065;22;20213;-69
2023/07/01 12:11:42;;;;;;;;;;;26.80;47.10;;;;;;6305620;22;20287;-69
2023/07/01 12:14:21;;;;;;;;;;;26.60;47.80;;;;;;6305812;22;19907;-69
2023/07/01 12:16:49;;;;;;;;;;;26.50;48.40;;;;;;6306118;22;19914;-74
2023/07/01 12:19:15;;;;;;;;;;;26.20;49.40;;;;;;6314285;22;19907;-72
2023/07/01 12:21:42;;;;;;;;;;;25.80;51.20;;;;;;6311544;22;19910;-72
2023/07/01 12:24:18;;;;;;;;;;;25.50;53.90;;;;;;6305883;22;19911;-64
2023/07/01 12:26:44;;;;;;;;;;;25.10;56.50;;;;;;6306038;22;19996;-70
2023/07/01 12:29:10;;;;;;;;;;;24.80;58.50;;;;;;6306190;22;19907;-66
2023/07/01 12:31:35;;;;;;;;;;;24.60;60.20;;;;;;6305460;22;19914;-67
2023/07/01 12:34:01;;;;;;;;;;;24.40;61.20;;;;;;6305984;22;20304;-66
2023/07/01 12:36:26;;;;;;;;;;;24.30;62.20;;;;;;6305317;22;19914;-68
2023/07/01 12:38:52;;;;;;;;;;;24.20;62.70;;;;;;6306191;22;19911;-66
2023/07/01 12:41:18;;;;;;;;;;;24.10;63.60;;;;;;6307304;22;19914;-66
2023/07/01 12:43:46;;;;;;;;;;;24.10;64.10;;;;;;6307659;22;19906;-66
2023/07/01 12:46:13;;;;;;;;;;;24.00;64.50;;;;;;6307172;22;19961;-66
2023/07/01 12:48:42;;;;;;;;;;;24.00;65.30;;;;;;6307317;22;19960;-66
2023/07/01 12:51:07;;;;;;;;;;;23.90;65.70;;;;;;6306942;22;19911;-67
2023/07/01 12:53:33;;;;;;;;;;;23.90;66.00;;;;;;6307548;22;19913;-66
2023/07/01 12:55:58;;;;;;;;;;;24.00;67.00;;;;;;6307143;22;20307;-70
2023/07/01 12:58:23;;;;;;;;;;;24.10;67.80;;;;;;6307483;22;19942;-71
2023/07/01 13:00:49;;;;;;;;;;;24.30;68.10;;;;;;6307058;22;19945;-71
2023/07/01 13:03:14;;;;;;;;;;;24.50;67.80;;;;;;6307051;22;19907;-72
2023/07/01 13:05:40;;;;;;;;;;;24.70;67.80;;;;;;6307075;22;20334;-72
2023/07/01 13:08:05;;;;;;;;;;;24.80;67.90;;;;;;6307028;22;20374;-72
2023/07/01 13:10:31;;;;;;;;;;;25.00;68.00;;;;;;6307019;22;20378;-71
2023/07/01 13:12:57;;;;;;;;;;;25.20;67.50;;;;;;6307002;22;19930;-71
2023/07/01 13:15:27;;;;;;;;;;;25.30;67.10;;;;;;6306757;22;20348;-71
2023/07/01 13:17:52;;;;;;;;;;;25.30;66.70;;;;;;6279497;22;19914;-70
2023/07/01 13:20:18;;;;;;;;;;;25.40;66.70;;;;;;6306752;22;19907;-71
2023/07/01 13:22:47;;;;;;;;;;;25.30;65.60;;;;;;6306762;22;19903;-72
2023/07/01 13:25:16;;;;;;;;;;;25.10;65.40;;;;;;6306778;22;19907;-72
2023/07/01 13:27:42;;;;;;;;;;;24.80;65.40;;;;;;6307180;22;19981;-73
2023/07/01 13:30:07;;;;;;;;;;;24.70;66.20;;;;;;6306749;22;20293;-73
2023/07/01 13:32:34;;;;;;;;;;;24.60;66.50;;;;;;6279868;22;19926;-74
2023/07/01 13:35:01;;;;;;;;;;;24.50;66.60;;;;;;6304428;22;19934;-74
2023/07/01 13:37:27;;;;;;;;;;;24.40;66.90;;;;;;6306733;22;19930;-74
2023/07/01 13:39:53;;;;;;;;;;;24.30;67.20;;;;;;6305603;22;19907;-73
2023/07/01 13:42:21;;;;;;;;;;;24.30;67.70;;;;;;6305328;22;19907;-73
2023/07/01 13:44:54;;;;;;;;;;;24.30;67.90;;;;;;6305586;22;20502;-73
2023/07/01 13:47:29;;;;;;;;;;;24.40;68.30;;;;;;6273518;22;20404;-73
2023/07/01 13:49:55;;;;;;;;;;;24.30;67.90;;;;;;6306638;22;19911;-74
2023/07/01 13:52:20;;;;;;;;;;;24.30;68.20;;;;;;6306320;22;19964;-73
2023/07/01 13:54:46;;;;;;;;;;;24.20;68.00;;;;;;6307078;22;20325;-72
2023/07/01 13:57:22;;;;;;;;;;;24.10;67.30;;;;;;6304515;22;19915;-72
2023/07/01 13:59:47;;;;;;;;;;;23.80;67.60;;;;;;6306367;22;19933;-72
2023/07/01 14:02:13;;;;;;;;;;;23.80;68.10;;;;;;6306643;22;19911;-72
2023/07/01 14:04:39;;;;;;;;;;;23.80;68.70;;;;;;6306989;22;19989;-72
2023/07/01 14:07:05;;;;;;;;;;;23.80;68.40;;;;;;6304587;22;20247;-74
2023/07/01 14:09:31;;;;;;;;;;;23.70;68.20;;;;;;6303739;22;20367;-73
2023/07/01 14:11:57;;;;;;;;;;;23.70;68.30;;;;;;6306335;22;19915;-73
2023/07/01 14:14:30;;;;;;;;;;;23.70;68.80;;;;;;6306052;22;19987;-73